createdAt,value
2022-10-19T00:00:14.185Z,14.23
2022-10-19T00:02:31.131Z,14.13
2022-10-19T00:04:48.240Z,13.70
2022-10-19T00:07:05.569Z,14.05
2022-10-19T00:09:23.506Z,13.73
2022-10-19T00:11:40.600Z,14.50
2022-10-19T00:13:58.477Z,15.05
2022-10-19T00:16:15.568Z,15.43
2022-10-19T00:18:33.965Z,14.10
2022-10-19T00:20:50.805Z,14.35
2022-10-19T00:23:08.177Z,14.70
2022-10-19T00:25:25.838Z,13.98
2022-10-19T00:27:43.120Z,13.65
2022-10-19T00:30:00.443Z,15.05
2022-10-19T00:32:18.534Z,14.38
2022-10-19T00:34:37.221Z,16.95
2022-10-19T00:36:54.441Z,16.30
2022-10-19T00:39:11.783Z,16.55
2022-10-19T00:41:29.077Z,17.67
2022-10-19T00:43:46.055Z,17.63
2022-10-19T00:46:04.303Z,15.93
2022-10-19T00:48:21.263Z,17.95
2022-10-19T00:50:38.289Z,17.90
2022-10-19T00:52:55.269Z,16.88
2022-10-19T00:55:12.228Z,18.15
2022-10-19T00:57:29.240Z,17.40
2022-10-19T00:59:46.355Z,17.08
2022-10-19T01:02:03.339Z,17.00
2022-10-19T01:04:20.284Z,17.55
2022-10-19T01:06:38.301Z,16.42
2022-10-19T01:08:55.476Z,16.27
2022-10-19T01:11:13.760Z,16.48
2022-10-19T01:13:32.026Z,16.73
2022-10-19T01:15:49.317Z,17.05
2022-10-19T01:18:06.422Z,17.05
2022-10-19T01:20:23.655Z,17.92
2022-10-19T01:22:40.968Z,17.10
2022-10-19T01:24:58.267Z,17.23
2022-10-19T01:27:15.557Z,17.10
2022-10-19T01:29:32.756Z,16.58
2022-10-19T01:31:49.990Z,17.70
2022-10-19T01:34:07.104Z,17.50
2022-10-19T01:36:24.113Z,18.70
2022-10-19T01:38:41.433Z,18.17
2022-10-19T01:40:58.763Z,19.77
2022-10-19T01:43:15.791Z,18.48
2022-10-19T01:45:34.033Z,17.88
2022-10-19T01:47:51.083Z,17.65
2022-10-19T01:50:08.011Z,16.67
2022-10-19T01:52:25.312Z,17.30
2022-10-19T01:54:42.314Z,17.25
2022-10-19T01:57:00.183Z,18.73
2022-10-19T01:59:17.451Z,19.55
2022-10-19T02:01:34.696Z,19.02
2022-10-19T02:03:51.740Z,19.15
2022-10-19T02:06:08.760Z,18.45
2022-10-19T02:08:25.994Z,20.48
2022-10-19T02:10:43.239Z,19.58
2022-10-19T02:13:00.107Z,19.77
2022-10-19T02:15:17.168Z,20.08
2022-10-19T02:17:34.138Z,20.20
2022-10-19T02:19:51.058Z,20.95
2022-10-19T02:22:07.912Z,19.80
2022-10-19T02:24:25.108Z,17.05
2022-10-19T02:26:42.117Z,19.50
2022-10-19T02:28:59.010Z,19.45
2022-10-19T02:31:16.106Z,17.55
2022-10-19T02:33:33.340Z,21.00
2022-10-19T02:35:51.250Z,20.10
2022-10-19T02:38:08.281Z,20.98
2022-10-19T02:40:26.251Z,21.95
2022-10-19T02:42:43.182Z,19.85
2022-10-19T02:45:00.231Z,21.20
2022-10-19T02:47:17.555Z,20.85
2022-10-19T02:49:34.880Z,21.55
2022-10-19T02:51:52.208Z,20.15
2022-10-19T02:54:09.445Z,21.17
2022-10-19T02:56:26.512Z,21.35
2022-10-19T02:58:43.454Z,20.60
2022-10-19T03:01:00.454Z,21.35
2022-10-19T03:03:17.525Z,21.08
2022-10-19T03:05:34.599Z,21.13
2022-10-19T03:07:51.460Z,20.10
2022-10-19T03:10:08.443Z,20.65
2022-10-19T03:12:26.710Z,21.33
2022-10-19T03:14:43.970Z,22.08
2022-10-19T03:17:00.930Z,21.75
2022-10-19T03:19:18.050Z,21.60
2022-10-19T03:21:36.002Z,20.95
2022-10-19T03:23:52.986Z,22.88
2022-10-19T03:26:12.180Z,19.77
2022-10-19T03:28:29.810Z,21.05
2022-10-19T03:30:46.841Z,21.88
2022-10-19T03:33:04.388Z,21.73
2022-10-19T03:35:21.325Z,22.88
2022-10-19T03:37:38.357Z,21.65
2022-10-19T03:39:55.348Z,22.50
2022-10-19T03:42:12.411Z,22.35
2022-10-19T03:44:29.346Z,20.67
2022-10-19T03:46:46.219Z,21.42
2022-10-19T03:49:03.277Z,21.63
2022-10-19T03:51:20.563Z,21.20
2022-10-19T03:53:38.238Z,20.73
2022-10-19T03:55:55.196Z,22.45
2022-10-19T03:58:12.325Z,26.77
2022-10-19T04:00:29.607Z,26.17
2022-10-19T04:02:46.833Z,25.13
2022-10-19T04:05:04.185Z,22.42
2022-10-19T04:07:22.209Z,22.23
2022-10-19T04:09:39.178Z,21.92
2022-10-19T04:11:56.543Z,22.95
2022-10-19T04:14:19.300Z,23.48
2022-10-19T04:16:44.113Z,22.67
2022-10-19T04:19:01.468Z,24.17
2022-10-19T04:21:19.646Z,23.23
2022-10-19T04:23:37.614Z,21.23
2022-10-19T04:25:54.617Z,20.05
2022-10-19T04:28:11.620Z,23.92
2022-10-19T04:30:28.832Z,23.05
2022-10-19T04:32:46.113Z,23.73
2022-10-19T04:35:03.429Z,21.92
2022-10-19T04:37:20.677Z,22.55
2022-10-19T04:39:37.705Z,22.58
2022-10-19T04:41:54.686Z,22.35
2022-10-19T04:44:12.078Z,23.23
2022-10-19T04:46:29.173Z,21.20
2022-10-19T04:48:47.191Z,23.58
2022-10-19T04:51:04.512Z,23.40
2022-10-19T04:53:21.582Z,22.25
2022-10-19T04:55:38.778Z,23.02
2022-10-19T04:57:56.113Z,21.98
2022-10-19T05:00:13.998Z,22.95
2022-10-19T05:02:31.082Z,20.92
2022-10-19T05:04:48.066Z,20.08
2022-10-19T05:07:05.160Z,19.30
2022-10-19T05:09:22.472Z,20.05
2022-10-19T05:11:39.791Z,18.80
2022-10-19T05:13:56.843Z,20.45
2022-10-19T05:16:13.978Z,18.77
2022-10-19T05:18:31.224Z,16.98
2022-10-19T05:20:48.556Z,18.77
2022-10-19T05:23:07.348Z,18.33
2022-10-19T05:25:24.534Z,16.10
2022-10-19T05:27:41.800Z,17.75
2022-10-19T05:29:59.049Z,19.73
2022-10-19T05:32:16.308Z,18.35
2022-10-19T05:34:33.500Z,17.83
2022-10-19T05:36:50.493Z,17.60
2022-10-19T05:39:07.364Z,17.20
2022-10-19T05:41:24.339Z,17.95
2022-10-19T05:43:41.577Z,17.88
2022-10-19T05:45:58.562Z,18.95
2022-10-19T05:48:15.838Z,18.08
2022-10-19T05:50:33.129Z,17.90
2022-10-19T05:52:50.067Z,19.08
2022-10-19T05:55:07.014Z,16.23
2022-10-19T05:57:24.029Z,17.65
2022-10-19T05:59:40.955Z,18.17
2022-10-19T06:01:57.885Z,16.27
2022-10-19T06:06:37.967Z,16.30
2022-10-19T06:08:55.148Z,16.05
2022-10-19T06:11:12.059Z,15.10
2022-10-19T06:13:30.382Z,15.65
2022-10-19T06:15:47.281Z,16.15
2022-10-19T06:18:04.213Z,14.77
2022-10-19T06:20:21.114Z,16.15
2022-10-19T06:22:38.249Z,14.95
2022-10-19T06:24:55.447Z,14.95
2022-10-19T06:27:12.374Z,14.40
2022-10-19T06:29:29.345Z,15.05
2022-10-19T06:31:46.312Z,14.85
2022-10-19T06:34:04.590Z,14.40
2022-10-19T06:36:21.551Z,16.83
2022-10-19T06:38:38.628Z,15.23
2022-10-19T06:40:55.530Z,16.80
2022-10-19T06:43:12.486Z,18.75
2022-10-19T06:45:32.257Z,18.42
2022-10-19T06:47:53.048Z,19.05
2022-10-19T06:50:10.081Z,18.13
2022-10-19T06:52:27.316Z,17.17
2022-10-19T06:54:44.389Z,17.23
2022-10-19T06:57:01.736Z,15.90
2022-10-19T06:59:18.677Z,16.80
2022-10-19T07:01:35.998Z,14.90
2022-10-19T07:03:53.047Z,16.10
2022-10-19T07:06:10.147Z,16.35
2022-10-19T07:08:27.077Z,17.55
2022-10-19T07:10:45.187Z,17.88
2022-10-19T07:13:02.102Z,16.85
2022-10-19T07:15:19.188Z,16.08
2022-10-19T07:17:37.162Z,16.58
2022-10-19T07:19:55.476Z,16.42
2022-10-19T07:22:18.611Z,16.70
2022-10-19T07:24:37.352Z,16.13
2022-10-19T07:26:54.590Z,15.93
2022-10-19T07:29:11.607Z,16.13
2022-10-19T07:31:28.611Z,17.30
2022-10-19T07:33:45.872Z,15.85
2022-10-19T07:36:04.339Z,16.83
2022-10-19T07:38:21.595Z,14.40
2022-10-19T07:40:40.025Z,16.05
2022-10-19T07:42:59.817Z,16.15
2022-10-19T07:45:16.807Z,15.18
2022-10-19T07:47:34.085Z,15.23
2022-10-19T07:49:51.437Z,16.67
2022-10-19T07:52:08.698Z,16.17
2022-10-19T07:54:27.055Z,16.67
2022-10-19T07:56:43.977Z,15.80
2022-10-19T07:59:02.190Z,15.70
2022-10-19T08:01:20.057Z,14.95
2022-10-19T08:06:14.268Z,15.75
2022-10-19T08:08:31.356Z,17.55
2022-10-19T08:10:49.339Z,16.70
2022-10-19T08:13:07.599Z,15.93
2022-10-19T08:15:24.616Z,15.30
2022-10-19T08:17:41.629Z,16.00
2022-10-19T08:19:58.663Z,15.80
2022-10-19T08:22:15.848Z,16.80
2022-10-19T08:24:32.938Z,16.52
2022-10-19T08:26:49.978Z,15.23
2022-10-19T08:29:06.965Z,14.23
2022-10-19T08:31:23.982Z,15.00
2022-10-19T08:33:41.253Z,16.50
2022-10-19T08:35:58.250Z,15.57
2022-10-19T08:38:15.144Z,14.52
2022-10-19T08:40:32.416Z,15.43
2022-10-19T08:42:49.446Z,14.68
2022-10-19T08:45:06.472Z,15.15
2022-10-19T08:47:24.299Z,14.18
2022-10-19T08:49:41.378Z,13.00
2022-10-19T08:51:59.556Z,14.18
2022-10-19T08:54:16.850Z,13.95
2022-10-19T08:56:51.383Z,14.93
2022-10-19T08:59:08.860Z,14.00
2022-10-19T09:01:25.855Z,12.75
2022-10-19T09:03:57.982Z,13.30
2022-10-19T09:06:15.773Z,13.57
2022-10-19T09:08:32.720Z,13.90
2022-10-19T09:10:49.991Z,12.40
2022-10-19T09:13:07.066Z,12.55
2022-10-19T09:15:24.093Z,12.57
2022-10-19T09:17:42.433Z,11.80
2022-10-19T09:19:59.568Z,12.48
2022-10-19T09:22:16.804Z,12.45
2022-10-19T09:24:33.775Z,12.85
2022-10-19T09:26:51.081Z,12.77
2022-10-19T09:29:08.077Z,11.32
2022-10-19T09:31:27.110Z,13.40
2022-10-19T09:33:46.194Z,12.25
2022-10-19T09:36:03.134Z,12.48
2022-10-19T09:38:20.069Z,12.48
2022-10-19T09:40:37.003Z,11.88
2022-10-19T09:42:54.004Z,12.13
2022-10-19T09:45:10.941Z,12.57
2022-10-19T09:47:27.942Z,13.73
2022-10-19T09:49:44.960Z,13.05
2022-10-19T09:52:01.889Z,12.27
2022-10-19T09:54:18.863Z,11.77
2022-10-19T09:56:35.893Z,12.20
2022-10-19T09:58:53.102Z,11.15
2022-10-19T10:01:09.964Z,11.98
2022-10-19T10:03:26.930Z,11.60
2022-10-19T10:05:43.914Z,11.43
2022-10-19T10:08:01.203Z,11.82
2022-10-19T10:10:18.437Z,11.23
2022-10-19T10:12:35.699Z,11.00
2022-10-19T10:14:53.325Z,10.15
2022-10-19T10:17:10.256Z,11.55
2022-10-19T10:19:27.365Z,11.85
2022-10-19T10:21:44.634Z,11.50
2022-10-19T10:24:01.650Z,11.60
2022-10-19T10:26:18.921Z,10.40
2022-10-19T10:28:35.829Z,11.18
2022-10-19T10:30:52.770Z,10.70
2022-10-19T10:33:26.419Z,11.00
2022-10-19T10:35:44.160Z,10.95
2022-10-19T10:38:01.084Z,10.38
2022-10-19T10:40:22.598Z,10.55
2022-10-19T10:42:40.668Z,10.13
2022-10-19T10:44:58.611Z,10.70
2022-10-19T10:47:15.598Z,10.68
2022-10-19T10:49:32.945Z,9.95
2022-10-19T10:51:52.881Z,10.15
2022-10-19T10:54:11.312Z,9.30
2022-10-19T10:56:28.526Z,9.52
2022-10-19T10:58:45.551Z,10.88
2022-10-19T11:01:06.645Z,9.98
2022-10-19T11:03:24.876Z,10.23
2022-10-19T11:05:41.899Z,10.25
2022-10-19T11:07:58.839Z,10.55
2022-10-19T11:10:15.881Z,10.50
2022-10-19T11:12:35.137Z,10.25
2022-10-19T11:14:52.646Z,10.32
2022-10-19T11:17:09.585Z,10.55
2022-10-19T11:19:26.926Z,9.50
2022-10-19T11:21:44.961Z,9.65
2022-10-19T11:24:02.290Z,9.45
2022-10-19T11:26:19.497Z,8.10
2022-10-19T11:28:36.514Z,8.30
2022-10-19T11:30:53.713Z,9.07
2022-10-19T11:33:10.668Z,8.13
2022-10-19T11:35:27.721Z,8.75
2022-10-19T11:37:50.271Z,8.90
2022-10-19T11:40:23.117Z,8.50
2022-10-19T11:42:40.001Z,8.85
2022-10-19T11:44:57.207Z,9.13
2022-10-19T11:47:14.125Z,9.55
2022-10-19T11:49:31.157Z,8.80
2022-10-19T11:51:48.299Z,8.20
2022-10-19T11:54:05.521Z,8.00
2022-10-19T11:56:25.233Z,8.25
2022-10-19T11:58:52.702Z,8.65
2022-10-19T12:01:10.021Z,8.35
2022-10-19T12:03:27.055Z,9.25
2022-10-19T12:05:45.017Z,8.65
2022-10-19T12:08:01.930Z,8.02
2022-10-19T12:10:18.851Z,8.18
2022-10-19T12:12:36.415Z,8.02
2022-10-19T12:14:53.681Z,8.90
2022-10-19T12:17:10.713Z,8.35
2022-10-19T12:19:28.025Z,8.63
2022-10-19T12:21:45.055Z,8.57
2022-10-19T12:24:02.044Z,8.35
2022-10-19T12:28:40.934Z,8.85
2022-10-19T12:30:57.868Z,8.52
2022-10-19T12:33:15.864Z,8.05
2022-10-19T12:35:32.804Z,8.20
2022-10-19T12:37:49.791Z,8.65
2022-10-19T12:40:06.865Z,7.93
2022-10-19T12:42:24.118Z,8.90
2022-10-19T12:44:40.986Z,9.50
2022-10-19T12:47:00.852Z,9.77
2022-10-19T12:49:18.374Z,9.68
2022-10-19T12:51:35.386Z,9.48
2022-10-19T12:53:52.719Z,9.70
2022-10-19T12:56:09.739Z,9.93
2022-10-19T12:58:26.607Z,9.07
2022-10-19T13:00:43.951Z,9.60
2022-10-19T13:03:01.043Z,10.60
2022-10-19T13:05:18.539Z,10.35
2022-10-19T13:07:35.744Z,10.00
2022-10-19T13:09:53.253Z,10.60
2022-10-19T13:12:10.548Z,10.40
2022-10-19T13:14:27.773Z,10.23
2022-10-19T13:16:46.068Z,10.57
2022-10-19T13:19:03.402Z,10.50
2022-10-19T13:21:22.772Z,10.75
2022-10-19T13:23:40.087Z,10.48
2022-10-19T13:25:57.185Z,10.15
2022-10-19T13:28:14.671Z,10.95
2022-10-19T13:30:31.574Z,10.48
2022-10-19T13:32:48.631Z,10.70
2022-10-19T13:35:06.873Z,11.00
2022-10-19T13:37:24.174Z,10.93
2022-10-19T13:39:42.168Z,10.57
2022-10-19T13:41:59.147Z,10.10
2022-10-19T13:44:16.868Z,10.40
2022-10-19T13:46:34.131Z,10.38
2022-10-19T13:48:51.468Z,10.35
2022-10-19T13:51:09.757Z,10.35
2022-10-19T13:53:27.990Z,10.13
2022-10-19T13:55:47.340Z,11.32
2022-10-19T13:58:05.482Z,10.63
2022-10-19T14:00:22.803Z,10.25
2022-10-19T14:02:39.781Z,10.45
2022-10-19T14:04:56.971Z,10.82
2022-10-19T14:07:13.956Z,10.75
2022-10-19T14:09:31.268Z,10.45
2022-10-19T14:11:48.303Z,10.85
2022-10-19T14:14:05.634Z,10.50
2022-10-19T14:16:22.718Z,11.23
2022-10-19T14:18:39.990Z,11.32
2022-10-19T14:20:57.356Z,10.65
2022-10-19T14:23:15.698Z,9.38
2022-10-19T14:25:32.757Z,11.43
2022-10-19T14:27:50.630Z,11.40
2022-10-19T14:30:07.912Z,11.75
2022-10-19T14:32:25.219Z,11.57
2022-10-19T14:34:42.312Z,11.70
2022-10-19T14:36:59.573Z,11.52
2022-10-19T14:39:17.600Z,11.85
2022-10-19T14:43:52.083Z,11.90
2022-10-19T14:46:10.349Z,12.48
2022-10-19T14:48:27.351Z,11.98
2022-10-19T14:50:44.263Z,11.98
2022-10-19T14:53:01.171Z,11.73
2022-10-19T14:55:18.430Z,11.65
2022-10-19T14:57:35.566Z,11.55
2022-10-19T14:59:53.416Z,10.93
2022-10-19T15:02:10.383Z,11.93
2022-10-19T15:04:28.008Z,12.68
2022-10-19T15:06:45.926Z,12.23
2022-10-19T15:09:05.404Z,12.13
2022-10-19T15:11:23.734Z,11.90
2022-10-19T15:13:40.999Z,12.30
2022-10-19T15:15:57.994Z,12.27
2022-10-19T15:18:25.336Z,11.00
2022-10-19T15:21:08.248Z,11.80
2022-10-19T15:23:29.743Z,11.45
2022-10-19T15:25:46.873Z,10.93
2022-10-19T15:28:04.187Z,11.20
2022-10-19T15:30:21.255Z,11.30
2022-10-19T15:32:38.864Z,11.57
2022-10-19T15:34:56.425Z,11.38
2022-10-19T15:37:15.740Z,11.05
2022-10-19T15:39:39.798Z,9.73
2022-10-19T15:42:00.455Z,10.57
2022-10-19T15:44:17.490Z,10.02
2022-10-19T15:46:34.531Z,10.52
2022-10-19T15:48:55.235Z,10.70
2022-10-19T15:51:12.620Z,10.18
2022-10-19T15:53:29.525Z,10.05
2022-10-19T15:55:46.479Z,10.00
2022-10-19T15:58:04.476Z,9.65
2022-10-19T16:00:21.757Z,10.02
2022-10-19T16:02:38.738Z,9.90
2022-10-19T16:04:56.088Z,9.32
2022-10-19T16:07:13.117Z,9.55
2022-10-19T16:09:30.338Z,10.20
2022-10-19T16:11:47.682Z,9.60
2022-10-19T16:14:04.763Z,9.73
2022-10-19T16:16:22.112Z,9.15
2022-10-19T16:18:39.216Z,9.48
2022-10-19T16:20:56.153Z,9.15
2022-10-19T16:23:13.368Z,9.13
2022-10-19T16:25:30.495Z,9.25
2022-10-19T16:27:47.843Z,9.27
2022-10-19T16:30:04.790Z,9.50
2022-10-19T16:32:21.812Z,9.07
2022-10-19T16:34:39.077Z,9.13
2022-10-19T16:36:57.063Z,10.15
2022-10-19T16:39:15.285Z,9.55
2022-10-19T16:41:32.604Z,9.70
2022-10-19T16:43:50.947Z,9.35
2022-10-19T16:46:08.152Z,8.40
2022-10-19T16:48:25.161Z,9.60
2022-10-19T16:53:00.608Z,8.07
2022-10-19T16:55:18.845Z,9.23
2022-10-19T16:57:35.823Z,8.95
2022-10-19T17:02:10.689Z,8.68
2022-10-19T17:04:27.960Z,8.85
2022-10-19T17:06:44.914Z,9.05
2022-10-19T17:11:39.108Z,8.63
2022-10-19T17:13:56.142Z,8.23
2022-10-19T17:16:13.085Z,7.97
2022-10-19T17:18:31.329Z,9.15
2022-10-19T17:20:48.264Z,8.10
2022-10-19T17:23:05.512Z,8.68
2022-10-19T17:25:22.721Z,8.80
2022-10-19T17:27:39.997Z,8.85
2022-10-19T17:29:57.343Z,8.23
2022-10-19T17:32:14.656Z,7.82
2022-10-19T17:34:32.100Z,9.75
2022-10-19T17:36:49.720Z,8.75
2022-10-19T17:39:07.664Z,9.00
2022-10-19T17:41:24.999Z,9.38
2022-10-19T17:43:43.290Z,9.35
2022-10-19T17:46:00.577Z,8.75
2022-10-19T17:48:17.618Z,9.63
2022-10-19T17:50:35.713Z,10.15
2022-10-19T17:52:52.799Z,9.85
2022-10-19T17:55:13.114Z,9.27
2022-10-19T17:57:30.889Z,9.90
2022-10-19T17:59:52.840Z,10.52
2022-10-19T18:02:10.182Z,10.20
2022-10-19T18:04:28.092Z,10.82
2022-10-19T18:06:45.429Z,8.63
2022-10-19T18:09:03.520Z,11.18
2022-10-19T18:11:20.854Z,10.63
2022-10-19T18:13:39.083Z,10.60
2022-10-19T18:15:57.126Z,10.02
2022-10-19T18:18:15.360Z,9.88
2022-10-19T18:20:32.678Z,10.13
2022-10-19T18:22:49.993Z,9.82
2022-10-19T18:25:07.034Z,10.98
2022-10-19T18:27:24.122Z,10.50
2022-10-19T18:29:41.098Z,8.93
2022-10-19T18:31:58.147Z,9.35
2022-10-19T18:34:15.468Z,9.93
2022-10-19T18:36:34.725Z,10.48
2022-10-19T18:38:51.781Z,9.93
2022-10-19T18:41:09.128Z,10.45
2022-10-19T18:43:26.473Z,10.07
2022-10-19T18:45:43.770Z,10.20
2022-10-19T18:48:00.913Z,9.55
2022-10-19T18:50:20.688Z,10.70
2022-10-19T18:52:37.749Z,10.00
2022-10-19T18:54:54.659Z,10.98
2022-10-19T18:57:11.620Z,10.07
2022-10-19T18:59:28.641Z,10.75
2022-10-19T19:01:45.952Z,9.98
2022-10-19T19:04:02.987Z,10.57
2022-10-19T19:06:20.293Z,10.68
2022-10-19T19:08:38.457Z,10.00
2022-10-19T19:10:55.835Z,10.23
2022-10-19T19:13:12.764Z,10.45
2022-10-19T19:15:30.035Z,10.90
2022-10-19T19:17:46.979Z,10.02
2022-10-19T19:20:04.090Z,10.30
2022-10-19T19:22:21.377Z,9.82
2022-10-19T19:24:38.420Z,9.88
2022-10-19T19:26:55.768Z,10.55
2022-10-19T19:29:13.489Z,10.27
2022-10-19T19:31:30.772Z,10.93
2022-10-19T19:33:47.808Z,9.90
2022-10-19T19:36:04.860Z,10.63
2022-10-19T19:38:21.842Z,9.30
2022-10-19T19:40:38.778Z,9.55
2022-10-19T19:42:56.041Z,10.45
2022-10-19T19:45:13.957Z,11.25
2022-10-19T19:47:31.192Z,10.82
2022-10-19T19:49:48.275Z,9.98
2022-10-19T19:52:05.274Z,10.00
2022-10-19T19:54:22.612Z,11.10
2022-10-19T19:56:39.651Z,10.98
2022-10-19T19:58:57.634Z,10.38
2022-10-19T20:01:15.005Z,10.38
2022-10-19T20:03:32.164Z,9.98
2022-10-19T20:05:49.205Z,10.20
2022-10-19T20:08:06.456Z,10.77
2022-10-19T20:10:23.578Z,11.32
2022-10-19T20:12:41.459Z,10.90
2022-10-19T20:14:58.754Z,11.27
2022-10-19T20:17:15.718Z,11.65
2022-10-19T20:19:33.027Z,11.27
2022-10-19T20:21:50.054Z,10.85
2022-10-19T20:24:06.991Z,11.75
2022-10-19T20:26:24.177Z,12.00
2022-10-19T20:28:41.298Z,10.82
2022-10-19T20:30:59.347Z,12.27
2022-10-19T20:33:16.643Z,11.77
2022-10-19T20:35:33.978Z,12.25
2022-10-19T20:37:51.074Z,12.63
2022-10-19T20:40:08.900Z,11.60
2022-10-19T20:42:26.125Z,11.80
2022-10-19T20:44:44.030Z,11.85
2022-10-19T20:47:01.113Z,11.73
2022-10-19T20:49:18.144Z,12.35
2022-10-19T20:51:35.168Z,12.70
2022-10-19T20:53:52.371Z,11.75
2022-10-19T20:56:09.616Z,11.70
2022-10-19T20:58:26.907Z,11.98
2022-10-19T21:00:46.280Z,12.45
2022-10-19T21:03:03.917Z,11.93
2022-10-19T21:05:22.072Z,11.95
2022-10-19T21:07:39.369Z,11.65
2022-10-19T21:09:57.233Z,11.90
2022-10-19T21:12:14.273Z,12.75
2022-10-19T21:14:31.665Z,12.15
2022-10-19T21:16:48.953Z,13.43
2022-10-19T21:19:06.258Z,12.85
2022-10-19T21:21:23.326Z,12.23
2022-10-19T21:23:41.670Z,12.77
2022-10-19T21:25:58.712Z,12.40
2022-10-19T21:28:16.938Z,13.00
2022-10-19T21:30:33.894Z,13.50
2022-10-19T21:32:52.171Z,12.85
2022-10-19T21:35:10.552Z,12.75
2022-10-19T21:37:28.642Z,12.98
2022-10-19T21:39:45.912Z,13.50
2022-10-19T21:42:03.977Z,12.85
2022-10-19T21:44:20.995Z,12.35
2022-10-19T21:46:37.979Z,11.57
2022-10-19T21:48:54.911Z,12.95
2022-10-19T21:51:12.313Z,12.98
2022-10-19T21:53:29.230Z,12.85
2022-10-19T21:55:46.472Z,13.05
2022-10-19T21:58:03.420Z,13.15
2022-10-19T22:00:20.790Z,13.57
2022-10-19T22:02:37.743Z,14.00
2022-10-19T22:04:54.663Z,13.82
2022-10-19T22:07:12.973Z,12.27
2022-10-19T22:09:29.968Z,11.88
2022-10-19T22:11:48.355Z,13.73
2022-10-19T22:14:05.353Z,14.05
2022-10-19T22:16:22.660Z,13.43
2022-10-19T22:18:41.060Z,13.02
2022-10-19T22:20:58.116Z,13.75
2022-10-19T22:23:15.035Z,13.63
2022-10-19T22:25:32.020Z,13.98
2022-10-19T22:27:49.097Z,13.70
2022-10-19T22:30:06.664Z,12.88
2022-10-19T22:32:23.916Z,14.25
2022-10-19T22:34:42.220Z,12.48
2022-10-19T22:36:59.272Z,13.55
2022-10-19T22:39:16.251Z,13.30
2022-10-19T22:41:35.726Z,13.52
2022-10-19T22:43:52.739Z,12.52
2022-10-19T22:46:10.059Z,13.48
2022-10-19T22:48:30.307Z,13.68
2022-10-19T22:50:47.356Z,13.07
2022-10-19T22:53:04.394Z,13.60
2022-10-19T22:55:22.742Z,13.30
2022-10-19T22:57:40.156Z,14.27
2022-10-19T22:59:58.743Z,13.43
2022-10-19T23:02:15.768Z,13.88
2022-10-19T23:04:32.922Z,12.82
2022-10-19T23:06:49.977Z,13.32
2022-10-19T23:09:10.355Z,13.52
2022-10-19T23:11:27.446Z,12.65
2022-10-19T23:13:45.898Z,14.20
2022-10-19T23:16:03.307Z,13.98
2022-10-19T23:18:21.721Z,14.20
2022-10-19T23:20:38.723Z,13.88
2022-10-19T23:22:55.968Z,14.10
2022-10-19T23:25:12.987Z,15.05
2022-10-19T23:27:30.429Z,15.13
2022-10-19T23:29:48.741Z,13.82
2022-10-19T23:32:05.689Z,15.27
2022-10-19T23:34:23.109Z,14.63
2022-10-19T23:36:41.317Z,14.90
2022-10-19T23:38:58.738Z,14.73
2022-10-19T23:41:16.164Z,15.13
2022-10-19T23:43:38.835Z,16.00
2022-10-19T23:45:56.056Z,16.00
2022-10-19T23:48:13.160Z,15.63
2022-10-19T23:50:33.752Z,16.10
2022-10-19T23:52:51.137Z,15.63
2022-10-19T23:55:08.220Z,16.42
2022-10-19T23:57:25.225Z,15.85
2022-10-19T23:59:43.537Z,17.10
